sensor_id;sensor_type;location;lat;lon;timestamp;P1;durP1;ratioP1;P2;durP2;ratioP2
20870;SDS011;10595;51.218;3.452;2023-05-07T00:00:58;28.43;;;14.43;;
20870;SDS011;10595;51.218;3.452;2023-05-07T00:03:24;22.57;;;13.93;;
20870;SDS011;10595;51.218;3.452;2023-05-07T00:05:51;24.50;;;13.73;;
20870;SDS011;10595;51.218;3.452;2023-05-07T00:08:18;19.63;;;13.43;;
20870;SDS011;10595;51.218;3.452;2023-05-07T00:10:45;19.30;;;14.33;;
20870;SDS011;10595;51.218;3.452;2023-05-07T00:13:11;22.87;;;13.60;;
20870;SDS011;10595;51.218;3.452;2023-05-07T00:15:37;24.37;;;14.53;;
20870;SDS011;10595;51.218;3.452;2023-05-07T00:18:03;19.70;;;13.60;;
20870;SDS011;10595;51.218;3.452;2023-05-07T00:20:29;22.77;;;14.43;;
20870;SDS011;10595;51.218;3.452;2023-05-07T00:22:55;22.80;;;13.27;;
20870;SDS011;10595;51.218;3.452;2023-05-07T00:25:21;18.77;;;12.70;;
20870;SDS011;10595;51.218;3.452;2023-05-07T00:27:47;18.77;;;12.90;;
20870;SDS011;10595;51.218;3.452;2023-05-07T00:30:13;20.77;;;13.60;;
20870;SDS011;10595;51.218;3.452;2023-05-07T00:32:40;21.37;;;13.30;;
20870;SDS011;10595;51.218;3.452;2023-05-07T00:35:06;24.27;;;12.87;;
20870;SDS011;10595;51.218;3.452;2023-05-07T00:37:32;20.13;;;12.57;;
20870;SDS011;10595;51.218;3.452;2023-05-07T00:39:58;19.10;;;13.20;;
20870;SDS011;10595;51.218;3.452;2023-05-07T00:42:24;18.37;;;11.73;;
20870;SDS011;10595;51.218;3.452;2023-05-07T00:44:50;21.13;;;12.27;;
20870;SDS011;10595;51.218;3.452;2023-05-07T00:47:16;19.40;;;11.63;;
20870;SDS011;10595;51.218;3.452;2023-05-07T00:49:43;21.67;;;12.10;;
20870;SDS011;10595;51.218;3.452;2023-05-07T00:52:11;22.83;;;12.07;;
20870;SDS011;10595;51.218;3.452;2023-05-07T00:54:37;21.07;;;11.70;;
20870;SDS011;10595;51.218;3.452;2023-05-07T00:57:03;19.93;;;11.73;;
20870;SDS011;10595;51.218;3.452;2023-05-07T00:59:30;17.90;;;12.00;;
20870;SDS011;10595;51.218;3.452;2023-05-07T01:01:56;18.40;;;11.70;;
20870;SDS011;10595;51.218;3.452;2023-05-07T01:04:22;19.30;;;11.80;;
20870;SDS011;10595;51.218;3.452;2023-05-07T01:06:48;18.10;;;11.10;;
20870;SDS011;10595;51.218;3.452;2023-05-07T01:09:14;21.30;;;11.47;;
20870;SDS011;10595;51.218;3.452;2023-05-07T01:11:40;18.57;;;12.47;;
20870;SDS011;10595;51.218;3.452;2023-05-07T01:14:07;20.83;;;11.80;;
20870;SDS011;10595;51.218;3.452;2023-05-07T01:16:34;20.37;;;11.33;;
20870;SDS011;10595;51.218;3.452;2023-05-07T01:19:00;18.40;;;12.20;;
20870;SDS011;10595;51.218;3.452;2023-05-07T01:21:26;18.03;;;11.40;;
20870;SDS011;10595;51.218;3.452;2023-05-07T01:23:56;21.47;;;12.27;;
20870;SDS011;10595;51.218;3.452;2023-05-07T01:26:22;18.30;;;11.00;;
20870;SDS011;10595;51.218;3.452;2023-05-07T01:28:49;18.10;;;11.80;;
20870;SDS011;10595;51.218;3.452;2023-05-07T01:31:15;18.50;;;10.87;;
20870;SDS011;10595;51.218;3.452;2023-05-07T01:33:42;19.57;;;12.73;;
20870;SDS011;10595;51.218;3.452;2023-05-07T01:36:10;18.33;;;11.83;;
20870;SDS011;10595;51.218;3.452;2023-05-07T01:38:37;19.50;;;11.50;;
20870;SDS011;10595;51.218;3.452;2023-05-07T01:41:03;17.43;;;11.40;;
20870;SDS011;10595;51.218;3.452;2023-05-07T01:43:30;27.60;;;11.90;;
20870;SDS011;10595;51.218;3.452;2023-05-07T01:45:57;19.67;;;10.63;;
20870;SDS011;10595;51.218;3.452;2023-05-07T01:48:24;18.40;;;12.03;;
20870;SDS011;10595;51.218;3.452;2023-05-07T01:50:50;14.93;;;11.03;;
20870;SDS011;10595;51.218;3.452;2023-05-07T01:53:16;17.17;;;11.23;;
20870;SDS011;10595;51.218;3.452;2023-05-07T01:55:42;20.07;;;11.60;;
20870;SDS011;10595;51.218;3.452;2023-05-07T01:58:08;22.40;;;11.73;;
20870;SDS011;10595;51.218;3.452;2023-05-07T02:00:34;17.13;;;11.63;;
20870;SDS011;10595;51.218;3.452;2023-05-07T02:03:00;16.57;;;11.33;;
20870;SDS011;10595;51.218;3.452;2023-05-07T02:05:26;16.53;;;11.60;;
20870;SDS011;10595;51.218;3.452;2023-05-07T02:07:52;19.60;;;11.63;;
20870;SDS011;10595;51.218;3.452;2023-05-07T02:10:18;22.23;;;11.87;;
20870;SDS011;10595;51.218;3.452;2023-05-07T02:12:44;20.40;;;12.30;;
20870;SDS011;10595;51.218;3.452;2023-05-07T02:15:10;19.30;;;11.57;;
20870;SDS011;10595;51.218;3.452;2023-05-07T02:17:39;16.87;;;11.87;;
20870;SDS011;10595;51.218;3.452;2023-05-07T02:20:05;20.93;;;12.43;;
20870;SDS011;10595;51.218;3.452;2023-05-07T02:22:38;18.67;;;12.57;;
20870;SDS011;10595;51.218;3.452;2023-05-07T02:25:04;17.93;;;12.77;;
20870;SDS011;10595;51.218;3.452;2023-05-07T02:27:30;20.67;;;11.83;;
20870;SDS011;10595;51.218;3.452;2023-05-07T02:29:56;19.07;;;13.53;;
20870;SDS011;10595;51.218;3.452;2023-05-07T02:32:22;19.93;;;12.37;;
20870;SDS011;10595;51.218;3.452;2023-05-07T02:34:49;17.47;;;11.50;;
20870;SDS011;10595;51.218;3.452;2023-05-07T02:37:17;17.60;;;10.70;;
20870;SDS011;10595;51.218;3.452;2023-05-07T02:39:44;14.50;;;10.37;;
20870;SDS011;10595;51.218;3.452;2023-05-07T02:42:10;17.03;;;11.90;;
20870;SDS011;10595;51.218;3.452;2023-05-07T02:44:36;19.33;;;11.43;;
20870;SDS011;10595;51.218;3.452;2023-05-07T02:47:03;18.43;;;11.40;;
20870;SDS011;10595;51.218;3.452;2023-05-07T02:49:29;19.33;;;11.77;;
20870;SDS011;10595;51.218;3.452;2023-05-07T02:51:55;14.63;;;11.47;;
20870;SDS011;10595;51.218;3.452;2023-05-07T02:54:21;16.67;;;11.17;;
20870;SDS011;10595;51.218;3.452;2023-05-07T02:56:47;19.63;;;12.17;;
20870;SDS011;10595;51.218;3.452;2023-05-07T02:59:13;16.73;;;11.57;;
20870;SDS011;10595;51.218;3.452;2023-05-07T03:01:39;18.27;;;11.33;;
20870;SDS011;10595;51.218;3.452;2023-05-07T03:04:08;21.03;;;13.07;;
20870;SDS011;10595;51.218;3.452;2023-05-07T03:06:34;20.47;;;13.43;;
20870;SDS011;10595;51.218;3.452;2023-05-07T03:09:00;18.80;;;12.57;;
20870;SDS011;10595;51.218;3.452;2023-05-07T03:11:26;14.43;;;11.63;;
20870;SDS011;10595;51.218;3.452;2023-05-07T03:13:52;15.93;;;11.13;;
20870;SDS011;10595;51.218;3.452;2023-05-07T03:16:18;15.43;;;10.77;;
20870;SDS011;10595;51.218;3.452;2023-05-07T03:18:44;14.83;;;10.30;;
20870;SDS011;10595;51.218;3.452;2023-05-07T03:21:10;15.93;;;11.07;;
20870;SDS011;10595;51.218;3.452;2023-05-07T03:23:36;17.17;;;11.50;;
20870;SDS011;10595;51.218;3.452;2023-05-07T03:26:02;19.67;;;12.10;;
20870;SDS011;10595;51.218;3.452;2023-05-07T03:28:28;21.50;;;12.47;;
20870;SDS011;10595;51.218;3.452;2023-05-07T03:30:54;19.77;;;12.80;;
20870;SDS011;10595;51.218;3.452;2023-05-07T03:33:21;17.80;;;11.63;;
20870;SDS011;10595;51.218;3.452;2023-05-07T03:35:47;21.50;;;12.10;;
20870;SDS011;10595;51.218;3.452;2023-05-07T03:38:13;22.07;;;12.13;;
20870;SDS011;10595;51.218;3.452;2023-05-07T03:40:39;20.20;;;12.97;;
20870;SDS011;10595;51.218;3.452;2023-05-07T03:43:05;23.80;;;13.43;;
20870;SDS011;10595;51.218;3.452;2023-05-07T03:45:31;24.07;;;13.37;;
20870;SDS011;10595;51.218;3.452;2023-05-07T03:47:57;22.57;;;12.87;;
20870;SDS011;10595;51.218;3.452;2023-05-07T03:50:23;21.33;;;13.30;;
20870;SDS011;10595;51.218;3.452;2023-05-07T03:52:49;21.67;;;13.33;;
20870;SDS011;10595;51.218;3.452;2023-05-07T03:55:15;20.70;;;13.90;;
20870;SDS011;10595;51.218;3.452;2023-05-07T03:57:41;22.10;;;13.77;;
20870;SDS011;10595;51.218;3.452;2023-05-07T04:00:07;19.73;;;14.23;;
20870;SDS011;10595;51.218;3.452;2023-05-07T04:02:33;22.93;;;13.73;;
20870;SDS011;10595;51.218;3.452;2023-05-07T04:04:59;26.10;;;14.80;;
20870;SDS011;10595;51.218;3.452;2023-05-07T04:07:26;23.77;;;14.93;;
20870;SDS011;10595;51.218;3.452;2023-05-07T04:09:52;27.63;;;14.57;;
20870;SDS011;10595;51.218;3.452;2023-05-07T04:12:18;26.13;;;13.93;;
20870;SDS011;10595;51.218;3.452;2023-05-07T04:14:44;20.30;;;13.67;;
20870;SDS011;10595;51.218;3.452;2023-05-07T04:17:10;23.33;;;14.17;;
20870;SDS011;10595;51.218;3.452;2023-05-07T04:19:36;17.07;;;12.47;;
20870;SDS011;10595;51.218;3.452;2023-05-07T04:22:02;23.97;;;13.20;;
20870;SDS011;10595;51.218;3.452;2023-05-07T04:24:30;19.13;;;12.33;;
20870;SDS011;10595;51.218;3.452;2023-05-07T04:26:57;19.47;;;11.87;;
20870;SDS011;10595;51.218;3.452;2023-05-07T04:29:23;19.93;;;13.20;;
20870;SDS011;10595;51.218;3.452;2023-05-07T04:31:49;17.60;;;11.67;;
20870;SDS011;10595;51.218;3.452;2023-05-07T04:34:15;15.27;;;11.00;;
20870;SDS011;10595;51.218;3.452;2023-05-07T04:36:42;19.17;;;12.27;;
20870;SDS011;10595;51.218;3.452;2023-05-07T04:39:08;22.07;;;13.60;;
20870;SDS011;10595;51.218;3.452;2023-05-07T04:41:35;19.13;;;12.70;;
20870;SDS011;10595;51.218;3.452;2023-05-07T04:44:02;20.70;;;12.43;;
20870;SDS011;10595;51.218;3.452;2023-05-07T04:46:29;14.47;;;11.53;;
20870;SDS011;10595;51.218;3.452;2023-05-07T04:48:55;21.87;;;12.40;;
20870;SDS011;10595;51.218;3.452;2023-05-07T04:51:21;17.17;;;12.67;;
20870;SDS011;10595;51.218;3.452;2023-05-07T04:53:47;17.97;;;11.70;;
20870;SDS011;10595;51.218;3.452;2023-05-07T04:56:13;20.80;;;13.03;;
20870;SDS011;10595;51.218;3.452;2023-05-07T04:58:39;19.67;;;13.20;;
20870;SDS011;10595;51.218;3.452;2023-05-07T05:01:05;22.27;;;12.47;;
20870;SDS011;10595;51.218;3.452;2023-05-07T05:03:32;19.47;;;12.97;;
20870;SDS011;10595;51.218;3.452;2023-05-07T05:05:58;20.43;;;14.37;;
20870;SDS011;10595;51.218;3.452;2023-05-07T05:08:24;25.13;;;15.90;;
20870;SDS011;10595;51.218;3.452;2023-05-07T05:10:50;26.20;;;17.03;;
20870;SDS011;10595;51.218;3.452;2023-05-07T05:13:16;24.60;;;15.40;;
20870;SDS011;10595;51.218;3.452;2023-05-07T05:15:42;24.57;;;14.70;;
20870;SDS011;10595;51.218;3.452;2023-05-07T05:18:08;24.90;;;14.73;;
20870;SDS011;10595;51.218;3.452;2023-05-07T05:20:34;21.33;;;14.17;;
20870;SDS011;10595;51.218;3.452;2023-05-07T05:23:00;16.87;;;12.57;;
20870;SDS011;10595;51.218;3.452;2023-05-07T05:25:27;20.80;;;12.53;;
20870;SDS011;10595;51.218;3.452;2023-05-07T05:27:53;21.47;;;12.27;;
20870;SDS011;10595;51.218;3.452;2023-05-07T05:30:19;16.63;;;11.53;;
20870;SDS011;10595;51.218;3.452;2023-05-07T05:32:45;21.60;;;13.27;;
20870;SDS011;10595;51.218;3.452;2023-05-07T05:35:11;17.80;;;11.60;;
20870;SDS011;10595;51.218;3.452;2023-05-07T05:37:37;21.30;;;13.33;;
20870;SDS011;10595;51.218;3.452;2023-05-07T05:40:03;18.50;;;12.37;;
20870;SDS011;10595;51.218;3.452;2023-05-07T05:42:30;18.83;;;12.27;;
20870;SDS011;10595;51.218;3.452;2023-05-07T05:44:56;17.23;;;12.10;;
20870;SDS011;10595;51.218;3.452;2023-05-07T05:47:22;17.97;;;12.67;;
20870;SDS011;10595;51.218;3.452;2023-05-07T05:49:48;18.00;;;12.90;;
20870;SDS011;10595;51.218;3.452;2023-05-07T05:52:14;22.37;;;12.40;;
20870;SDS011;10595;51.218;3.452;2023-05-07T05:54:41;21.83;;;12.37;;
20870;SDS011;10595;51.218;3.452;2023-05-07T05:57:07;26.97;;;12.83;;
20870;SDS011;10595;51.218;3.452;2023-05-07T05:59:34;17.93;;;12.73;;
20870;SDS011;10595;51.218;3.452;2023-05-07T06:02:00;21.13;;;13.70;;
20870;SDS011;10595;51.218;3.452;2023-05-07T06:04:26;24.63;;;13.23;;
20870;SDS011;10595;51.218;3.452;2023-05-07T06:06:52;21.37;;;13.37;;
20870;SDS011;10595;51.218;3.452;2023-05-07T06:09:18;22.00;;;13.67;;
20870;SDS011;10595;51.218;3.452;2023-05-07T06:11:44;18.87;;;13.13;;
20870;SDS011;10595;51.218;3.452;2023-05-07T06:14:10;22.70;;;12.90;;
20870;SDS011;10595;51.218;3.452;2023-05-07T06:16:36;19.73;;;12.73;;
20870;SDS011;10595;51.218;3.452;2023-05-07T06:19:03;19.73;;;12.67;;
20870;SDS011;10595;51.218;3.452;2023-05-07T06:21:29;20.33;;;12.43;;
20870;SDS011;10595;51.218;3.452;2023-05-07T06:23:55;18.33;;;12.83;;
20870;SDS011;10595;51.218;3.452;2023-05-07T06:26:21;20.60;;;11.70;;
20870;SDS011;10595;51.218;3.452;2023-05-07T06:28:47;18.50;;;11.93;;
20870;SDS011;10595;51.218;3.452;2023-05-07T06:31:17;21.83;;;11.53;;
20870;SDS011;10595;51.218;3.452;2023-05-07T06:33:45;17.07;;;10.70;;
20870;SDS011;10595;51.218;3.452;2023-05-07T06:36:11;17.63;;;9.93;;
20870;SDS011;10595;51.218;3.452;2023-05-07T06:38:37;16.43;;;9.80;;
20870;SDS011;10595;51.218;3.452;2023-05-07T06:41:05;16.70;;;9.67;;
20870;SDS011;10595;51.218;3.452;2023-05-07T06:43:31;15.10;;;9.10;;
20870;SDS011;10595;51.218;3.452;2023-05-07T06:45:57;17.20;;;9.67;;
20870;SDS011;10595;51.218;3.452;2023-05-07T06:48:23;16.63;;;9.00;;
20870;SDS011;10595;51.218;3.452;2023-05-07T06:50:49;15.50;;;9.20;;
20870;SDS011;10595;51.218;3.452;2023-05-07T06:53:15;15.67;;;9.43;;
20870;SDS011;10595;51.218;3.452;2023-05-07T06:55:41;16.83;;;9.47;;
20870;SDS011;10595;51.218;3.452;2023-05-07T06:58:07;17.20;;;9.13;;
20870;SDS011;10595;51.218;3.452;2023-05-07T07:00:33;17.70;;;9.23;;
20870;SDS011;10595;51.218;3.452;2023-05-07T07:02:59;16.67;;;9.23;;
20870;SDS011;10595;51.218;3.452;2023-05-07T07:05:25;17.87;;;9.57;;
20870;SDS011;10595;51.218;3.452;2023-05-07T07:07:51;16.90;;;10.13;;
20870;SDS011;10595;51.218;3.452;2023-05-07T07:10:18;15.93;;;9.87;;
20870;SDS011;10595;51.218;3.452;2023-05-07T07:12:45;18.97;;;10.43;;
20870;SDS011;10595;51.218;3.452;2023-05-07T07:15:11;30.23;;;12.87;;
20870;SDS011;10595;51.218;3.452;2023-05-07T07:17:37;20.10;;;11.40;;
20870;SDS011;10595;51.218;3.452;2023-05-07T07:20:03;21.60;;;11.57;;
20870;SDS011;10595;51.218;3.452;2023-05-07T07:22:29;19.80;;;11.87;;
20870;SDS011;10595;51.218;3.452;2023-05-07T07:24:55;18.70;;;11.33;;
20870;SDS011;10595;51.218;3.452;2023-05-07T07:27:21;17.03;;;10.27;;
20870;SDS011;10595;51.218;3.452;2023-05-07T07:29:47;17.30;;;11.70;;
20870;SDS011;10595;51.218;3.452;2023-05-07T07:32:13;17.63;;;10.47;;
20870;SDS011;10595;51.218;3.452;2023-05-07T07:34:39;23.73;;;11.13;;
20870;SDS011;10595;51.218;3.452;2023-05-07T07:37:05;23.40;;;11.13;;
20870;SDS011;10595;51.218;3.452;2023-05-07T07:39:31;21.57;;;11.37;;
20870;SDS011;10595;51.218;3.452;2023-05-07T07:41:57;20.87;;;11.67;;
20870;SDS011;10595;51.218;3.452;2023-05-07T07:44:23;18.60;;;11.73;;
20870;SDS011;10595;51.218;3.452;2023-05-07T07:46:49;24.17;;;12.73;;
20870;SDS011;10595;51.218;3.452;2023-05-07T07:49:15;18.07;;;11.37;;
20870;SDS011;10595;51.218;3.452;2023-05-07T07:51:41;17.47;;;11.40;;
20870;SDS011;10595;51.218;3.452;2023-05-07T07:54:08;20.23;;;12.00;;
20870;SDS011;10595;51.218;3.452;2023-05-07T07:56:34;22.77;;;12.37;;
20870;SDS011;10595;51.218;3.452;2023-05-07T07:59:00;21.90;;;11.87;;
20870;SDS011;10595;51.218;3.452;2023-05-07T08:01:26;21.80;;;12.23;;
20870;SDS011;10595;51.218;3.452;2023-05-07T08:03:52;22.03;;;12.90;;
20870;SDS011;10595;51.218;3.452;2023-05-07T08:06:19;25.53;;;13.10;;
20870;SDS011;10595;51.218;3.452;2023-05-07T08:08:45;21.77;;;12.50;;
20870;SDS011;10595;51.218;3.452;2023-05-07T08:11:11;24.30;;;13.33;;
20870;SDS011;10595;51.218;3.452;2023-05-07T08:13:37;21.33;;;13.03;;
20870;SDS011;10595;51.218;3.452;2023-05-07T08:16:04;24.20;;;13.90;;
20870;SDS011;10595;51.218;3.452;2023-05-07T08:18:30;25.17;;;13.93;;
20870;SDS011;10595;51.218;3.452;2023-05-07T08:20:56;23.50;;;13.87;;
20870;SDS011;10595;51.218;3.452;2023-05-07T08:23:22;22.17;;;13.43;;
20870;SDS011;10595;51.218;3.452;2023-05-07T08:25:48;19.57;;;12.33;;
20870;SDS011;10595;51.218;3.452;2023-05-07T08:28:16;24.17;;;12.67;;
20870;SDS011;10595;51.218;3.452;2023-05-07T08:30:42;22.27;;;13.53;;
20870;SDS011;10595;51.218;3.452;2023-05-07T08:33:08;20.67;;;13.73;;
20870;SDS011;10595;51.218;3.452;2023-05-07T08:35:34;18.20;;;13.37;;
20870;SDS011;10595;51.218;3.452;2023-05-07T08:38:00;21.43;;;14.27;;
20870;SDS011;10595;51.218;3.452;2023-05-07T08:40:26;21.13;;;13.43;;
20870;SDS011;10595;51.218;3.452;2023-05-07T08:42:53;23.37;;;13.90;;
20870;SDS011;10595;51.218;3.452;2023-05-07T08:45:19;23.07;;;13.80;;
20870;SDS011;10595;51.218;3.452;2023-05-07T08:47:52;21.47;;;13.90;;
20870;SDS011;10595;51.218;3.452;2023-05-07T08:50:19;22.53;;;13.87;;
20870;SDS011;10595;51.218;3.452;2023-05-07T08:52:46;20.73;;;13.57;;
20870;SDS011;10595;51.218;3.452;2023-05-07T08:55:12;22.20;;;13.07;;
20870;SDS011;10595;51.218;3.452;2023-05-07T08:57:39;24.40;;;13.27;;
20870;SDS011;10595;51.218;3.452;2023-05-07T09:00:05;23.57;;;13.07;;
20870;SDS011;10595;51.218;3.452;2023-05-07T09:02:32;23.70;;;13.87;;
20870;SDS011;10595;51.218;3.452;2023-05-07T09:04:58;22.70;;;13.53;;
20870;SDS011;10595;51.218;3.452;2023-05-07T09:07:25;19.20;;;12.47;;
20870;SDS011;10595;51.218;3.452;2023-05-07T09:09:51;19.80;;;13.37;;
20870;SDS011;10595;51.218;3.452;2023-05-07T09:12:20;21.67;;;12.57;;
20870;SDS011;10595;51.218;3.452;2023-05-07T09:14:46;22.53;;;13.07;;
20870;SDS011;10595;51.218;3.452;2023-05-07T09:17:13;21.53;;;12.43;;
20870;SDS011;10595;51.218;3.452;2023-05-07T09:19:39;20.63;;;11.87;;
20870;SDS011;10595;51.218;3.452;2023-05-07T09:22:05;18.10;;;11.07;;
20870;SDS011;10595;51.218;3.452;2023-05-07T09:24:34;19.87;;;11.27;;
20870;SDS011;10595;51.218;3.452;2023-05-07T09:27:02;17.53;;;10.07;;
20870;SDS011;10595;51.218;3.452;2023-05-07T09:29:29;17.90;;;9.80;;
20870;SDS011;10595;51.218;3.452;2023-05-07T09:31:57;18.97;;;10.03;;
20870;SDS011;10595;51.218;3.452;2023-05-07T09:34:23;17.03;;;9.80;;
20870;SDS011;10595;51.218;3.452;2023-05-07T09:36:49;18.90;;;10.07;;
20870;SDS011;10595;51.218;3.452;2023-05-07T09:39:16;14.87;;;7.67;;
20870;SDS011;10595;51.218;3.452;2023-05-07T09:41:45;11.73;;;7.37;;
20870;SDS011;10595;51.218;3.452;2023-05-07T09:44:12;12.43;;;6.83;;
20870;SDS011;10595;51.218;3.452;2023-05-07T09:46:38;10.77;;;7.47;;
20870;SDS011;10595;51.218;3.452;2023-05-07T09:49:04;12.03;;;6.47;;
20870;SDS011;10595;51.218;3.452;2023-05-07T09:51:43;12.27;;;6.00;;
20870;SDS011;10595;51.218;3.452;2023-05-07T09:54:11;10.10;;;5.70;;
20870;SDS011;10595;51.218;3.452;2023-05-07T09:56:37;13.10;;;6.93;;
20870;SDS011;10595;51.218;3.452;2023-05-07T09:59:03;12.80;;;6.30;;
20870;SDS011;10595;51.218;3.452;2023-05-07T10:01:31;13.23;;;6.50;;
20870;SDS011;10595;51.218;3.452;2023-05-07T10:03:57;11.67;;;5.90;;
20870;SDS011;10595;51.218;3.452;2023-05-07T10:06:24;14.77;;;5.80;;
20870;SDS011;10595;51.218;3.452;2023-05-07T10:08:51;9.53;;;5.43;;
20870;SDS011;10595;51.218;3.452;2023-05-07T10:11:18;7.83;;;4.23;;
20870;SDS011;10595;51.218;3.452;2023-05-07T10:13:44;6.50;;;4.00;;
20870;SDS011;10595;51.218;3.452;2023-05-07T10:16:11;8.33;;;4.00;;
20870;SDS011;10595;51.218;3.452;2023-05-07T10:18:38;8.93;;;3.90;;
20870;SDS011;10595;51.218;3.452;2023-05-07T10:21:07;5.77;;;3.87;;
20870;SDS011;10595;51.218;3.452;2023-05-07T10:23:33;9.37;;;4.20;;
20870;SDS011;10595;51.218;3.452;2023-05-07T10:26:03;8.70;;;4.37;;
20870;SDS011;10595;51.218;3.452;2023-05-07T10:28:32;8.53;;;4.33;;
20870;SDS011;10595;51.218;3.452;2023-05-07T10:31:18;7.07;;;4.30;;
20870;SDS011;10595;51.218;3.452;2023-05-07T10:33:49;9.43;;;3.70;;
20870;SDS011;10595;51.218;3.452;2023-05-07T10:36:16;8.13;;;5.67;;
20870;SDS011;10595;51.218;3.452;2023-05-07T10:38:43;5.63;;;4.07;;
20870;SDS011;10595;51.218;3.452;2023-05-07T10:41:09;4.90;;;3.20;;
20870;SDS011;10595;51.218;3.452;2023-05-07T10:43:39;5.07;;;3.67;;
20870;SDS011;10595;51.218;3.452;2023-05-07T10:46:16;8.50;;;4.00;;
20870;SDS011;10595;51.218;3.452;2023-05-07T10:51:28;8.20;;;3.57;;
20870;SDS011;10595;51.218;3.452;2023-05-07T10:56:45;7.47;;;3.37;;
20870;SDS011;10595;51.218;3.452;2023-05-07T11:01:57;6.60;;;3.20;;
20870;SDS011;10595;51.218;3.452;2023-05-07T11:04:23;8.30;;;3.73;;
20870;SDS011;10595;51.218;3.452;2023-05-07T11:15:08;5.20;;;2.87;;
20870;SDS011;10595;51.218;3.452;2023-05-07T11:17:56;8.20;;;3.60;;
20870;SDS011;10595;51.218;3.452;2023-05-07T11:20:21;6.70;;;2.97;;
20870;SDS011;10595;51.218;3.452;2023-05-07T11:23:08;6.20;;;3.13;;
20870;SDS011;10595;51.218;3.452;2023-05-07T11:25:34;6.27;;;3.00;;
20870;SDS011;10595;51.218;3.452;2023-05-07T11:28:09;7.40;;;3.00;;
20870;SDS011;10595;51.218;3.452;2023-05-07T11:30:35;6.30;;;2.90;;
20870;SDS011;10595;51.218;3.452;2023-05-07T11:33:02;7.93;;;3.43;;
20870;SDS011;10595;51.218;3.452;2023-05-07T11:35:28;6.33;;;3.93;;
20870;SDS011;10595;51.218;3.452;2023-05-07T11:37:57;11.70;;;4.03;;
20870;SDS011;10595;51.218;3.452;2023-05-07T11:40:25;8.03;;;4.47;;
20870;SDS011;10595;51.218;3.452;2023-05-07T11:42:51;9.07;;;4.97;;
20870;SDS011;10595;51.218;3.452;2023-05-07T11:45:22;5.80;;;4.60;;
20870;SDS011;10595;51.218;3.452;2023-05-07T11:47:52;9.80;;;5.37;;
20870;SDS011;10595;51.218;3.452;2023-05-07T11:50:18;7.33;;;5.13;;
20870;SDS011;10595;51.218;3.452;2023-05-07T11:52:50;9.23;;;5.23;;
20870;SDS011;10595;51.218;3.452;2023-05-07T11:55:17;8.60;;;4.97;;
20870;SDS011;10595;51.218;3.452;2023-05-07T11:57:44;11.87;;;5.33;;
20870;SDS011;10595;51.218;3.452;2023-05-07T12:00:10;9.90;;;5.20;;
20870;SDS011;10595;51.218;3.452;2023-05-07T12:02:36;6.63;;;4.83;;
20870;SDS011;10595;51.218;3.452;2023-05-07T12:05:03;11.03;;;5.27;;
20870;SDS011;10595;51.218;3.452;2023-05-07T12:07:29;7.10;;;4.57;;
20870;SDS011;10595;51.218;3.452;2023-05-07T12:09:56;8.93;;;5.30;;
20870;SDS011;10595;51.218;3.452;2023-05-07T12:12:22;7.63;;;4.53;;
20870;SDS011;10595;51.218;3.452;2023-05-07T12:14:48;7.07;;;4.33;;
20870;SDS011;10595;51.218;3.452;2023-05-07T12:17:15;8.70;;;5.07;;
20870;SDS011;10595;51.218;3.452;2023-05-07T12:19:42;5.07;;;4.57;;
20870;SDS011;10595;51.218;3.452;2023-05-07T12:22:09;8.67;;;4.53;;
20870;SDS011;10595;51.218;3.452;2023-05-07T12:24:48;7.77;;;5.10;;
20870;SDS011;10595;51.218;3.452;2023-05-07T12:27:14;7.30;;;4.53;;
20870;SDS011;10595;51.218;3.452;2023-05-07T12:29:44;7.53;;;4.53;;
20870;SDS011;10595;51.218;3.452;2023-05-07T12:32:14;6.50;;;4.27;;
20870;SDS011;10595;51.218;3.452;2023-05-07T12:34:41;6.90;;;4.70;;
20870;SDS011;10595;51.218;3.452;2023-05-07T12:37:09;7.40;;;4.60;;
20870;SDS011;10595;51.218;3.452;2023-05-07T12:39:35;6.93;;;4.43;;
20870;SDS011;10595;51.218;3.452;2023-05-07T12:42:01;7.37;;;4.57;;
20870;SDS011;10595;51.218;3.452;2023-05-07T12:44:31;6.10;;;3.90;;
20870;SDS011;10595;51.218;3.452;2023-05-07T12:46:58;6.90;;;4.40;;
20870;SDS011;10595;51.218;3.452;2023-05-07T12:49:25;8.67;;;4.70;;
20870;SDS011;10595;51.218;3.452;2023-05-07T12:51:51;7.40;;;4.10;;
20870;SDS011;10595;51.218;3.452;2023-05-07T12:54:33;10.57;;;4.23;;
20870;SDS011;10595;51.218;3.452;2023-05-07T12:59:38;5.47;;;4.10;;
20870;SDS011;10595;51.218;3.452;2023-05-07T13:02:05;8.13;;;3.90;;
20870;SDS011;10595;51.218;3.452;2023-05-07T13:04:31;6.03;;;3.70;;
20870;SDS011;10595;51.218;3.452;2023-05-07T13:06:57;5.97;;;3.43;;
20870;SDS011;10595;51.218;3.452;2023-05-07T13:09:23;5.07;;;3.20;;
20870;SDS011;10595;51.218;3.452;2023-05-07T13:11:49;6.20;;;3.00;;
20870;SDS011;10595;51.218;3.452;2023-05-07T13:14:16;4.80;;;3.17;;
20870;SDS011;10595;51.218;3.452;2023-05-07T13:16:42;6.20;;;3.67;;
20870;SDS011;10595;51.218;3.452;2023-05-07T13:19:08;4.40;;;3.10;;
20870;SDS011;10595;51.218;3.452;2023-05-07T13:21:35;5.87;;;2.87;;
20870;SDS011;10595;51.218;3.452;2023-05-07T13:24:01;3.80;;;2.47;;
20870;SDS011;10595;51.218;3.452;2023-05-07T13:26:27;3.70;;;2.20;;
20870;SDS011;10595;51.218;3.452;2023-05-07T13:28:53;3.53;;;1.97;;
20870;SDS011;10595;51.218;3.452;2023-05-07T13:31:19;6.17;;;2.67;;
20870;SDS011;10595;51.218;3.452;2023-05-07T13:33:46;6.23;;;2.73;;
20870;SDS011;10595;51.218;3.452;2023-05-07T13:36:12;6.87;;;2.70;;
20870;SDS011;10595;51.218;3.452;2023-05-07T13:38:39;7.37;;;3.07;;
20870;SDS011;10595;51.218;3.452;2023-05-07T13:41:05;6.07;;;3.37;;
20870;SDS011;10595;51.218;3.452;2023-05-07T13:43:31;6.10;;;3.03;;
20870;SDS011;10595;51.218;3.452;2023-05-07T13:45:58;5.13;;;3.67;;
20870;SDS011;10595;51.218;3.452;2023-05-07T13:48:24;6.83;;;3.53;;
20870;SDS011;10595;51.218;3.452;2023-05-07T13:50:50;5.20;;;3.20;;
20870;SDS011;10595;51.218;3.452;2023-05-07T13:53:16;5.33;;;3.07;;
20870;SDS011;10595;51.218;3.452;2023-05-07T13:55:43;6.50;;;2.77;;
20870;SDS011;10595;51.218;3.452;2023-05-07T13:58:09;4.47;;;2.47;;
20870;SDS011;10595;51.218;3.452;2023-05-07T14:00:35;6.07;;;2.83;;
20870;SDS011;10595;51.218;3.452;2023-05-07T14:03:01;6.23;;;3.23;;
20870;SDS011;10595;51.218;3.452;2023-05-07T14:05:27;5.67;;;3.00;;
20870;SDS011;10595;51.218;3.452;2023-05-07T14:07:54;4.50;;;2.77;;
20870;SDS011;10595;51.218;3.452;2023-05-07T14:10:20;3.03;;;2.10;;
20870;SDS011;10595;51.218;3.452;2023-05-07T14:12:46;4.10;;;2.30;;
20870;SDS011;10595;51.218;3.452;2023-05-07T14:15:12;4.03;;;2.60;;
20870;SDS011;10595;51.218;3.452;2023-05-07T14:17:38;2.53;;;2.17;;
20870;SDS011;10595;51.218;3.452;2023-05-07T14:20:04;4.60;;;2.33;;
20870;SDS011;10595;51.218;3.452;2023-05-07T14:22:34;5.00;;;2.40;;
20870;SDS011;10595;51.218;3.452;2023-05-07T14:25:00;4.17;;;2.43;;
20870;SDS011;10595;51.218;3.452;2023-05-07T14:27:26;3.27;;;2.30;;
20870;SDS011;10595;51.218;3.452;2023-05-07T14:29:52;4.53;;;2.40;;
20870;SDS011;10595;51.218;3.452;2023-05-07T14:32:18;4.47;;;2.40;;
20870;SDS011;10595;51.218;3.452;2023-05-07T14:34:44;3.23;;;2.07;;
20870;SDS011;10595;51.218;3.452;2023-05-07T14:37:10;22.73;;;15.37;;
20870;SDS011;10595;51.218;3.452;2023-05-07T14:39:36;26.17;;;17.57;;
20870;SDS011;10595;51.218;3.452;2023-05-07T14:42:02;23.33;;;17.43;;
20870;SDS011;10595;51.218;3.452;2023-05-07T14:44:28;25.23;;;18.47;;
20870;SDS011;10595;51.218;3.452;2023-05-07T14:46:56;29.67;;;19.13;;